sensor_id;sensor_type;location;lat;lon;timestamp;temperature;humidity
5560;DHT22;2803;47.916;8.074;2023-07-13T00:02:18;22.80;99.90
5560;DHT22;2803;47.916;8.074;2023-07-13T00:04:44;22.80;99.90
5560;DHT22;2803;47.916;8.074;2023-07-13T00:07:11;22.80;99.90
5560;DHT22;2803;47.916;8.074;2023-07-13T00:09:40;22.20;99.90
5560;DHT22;2803;47.916;8.074;2023-07-13T00:12:22;21.80;99.90
5560;DHT22;2803;47.916;8.074;2023-07-13T00:14:50;21.80;99.90
5560;DHT22;2803;47.916;8.074;2023-07-13T00:17:17;22.00;99.90
5560;DHT22;2803;47.916;8.074;2023-07-13T00:19:43;22.20;99.90
5560;DHT22;2803;47.916;8.074;2023-07-13T00:22:11;22.20;99.90
5560;DHT22;2803;47.916;8.074;2023-07-13T00:24:37;22.30;99.90
5560;DHT22;2803;47.916;8.074;2023-07-13T00:27:07;22.30;99.90
5560;DHT22;2803;47.916;8.074;2023-07-13T00:29:34;22.10;99.90
5560;DHT22;2803;47.916;8.074;2023-07-13T00:32:02;22.30;99.90
5560;DHT22;2803;47.916;8.074;2023-07-13T00:34:29;22.30;99.90
5560;DHT22;2803;47.916;8.074;2023-07-13T00:36:55;22.30;99.90
5560;DHT22;2803;47.916;8.074;2023-07-13T00:39:22;22.40;99.90
5560;DHT22;2803;47.916;8.074;2023-07-13T00:41:49;22.40;99.90
5560;DHT22;2803;47.916;8.074;2023-07-13T00:44:18;22.40;99.90
5560;DHT22;2803;47.916;8.074;2023-07-13T00:46:45;22.30;99.90
5560;DHT22;2803;47.916;8.074;2023-07-13T00:49:16;22.40;99.90
5560;DHT22;2803;47.916;8.074;2023-07-13T00:51:46;22.40;99.90
5560;DHT22;2803;47.916;8.074;2023-07-13T00:54:18;22.50;99.90
5560;DHT22;2803;47.916;8.074;2023-07-13T00:56:49;22.40;99.90
5560;DHT22;2803;47.916;8.074;2023-07-13T00:59:17;22.40;99.90
5560;DHT22;2803;47.916;8.074;2023-07-13T01:01:45;22.50;99.90
5560;DHT22;2803;47.916;8.074;2023-07-13T01:04:13;22.50;99.90
5560;DHT22;2803;47.916;8.074;2023-07-13T01:06:41;22.40;99.90
5560;DHT22;2803;47.916;8.074;2023-07-13T01:09:09;22.30;99.90
5560;DHT22;2803;47.916;8.074;2023-07-13T01:11:37;22.40;99.90
5560;DHT22;2803;47.916;8.074;2023-07-13T01:14:04;22.40;99.90
5560;DHT22;2803;47.916;8.074;2023-07-13T01:16:32;22.40;99.90
5560;DHT22;2803;47.916;8.074;2023-07-13T01:19:00;22.30;99.90
5560;DHT22;2803;47.916;8.074;2023-07-13T01:21:29;22.20;99.90
5560;DHT22;2803;47.916;8.074;2023-07-13T01:23:58;22.10;99.90
5560;DHT22;2803;47.916;8.074;2023-07-13T01:26:25;22.20;99.90
5560;DHT22;2803;47.916;8.074;2023-07-13T01:28:52;22.10;99.90
5560;DHT22;2803;47.916;8.074;2023-07-13T01:31:19;22.00;99.90
5560;DHT22;2803;47.916;8.074;2023-07-13T01:33:45;22.00;99.90
5560;DHT22;2803;47.916;8.074;2023-07-13T01:36:12;22.00;99.90
5560;DHT22;2803;47.916;8.074;2023-07-13T01:38:40;22.00;99.90
5560;DHT22;2803;47.916;8.074;2023-07-13T01:41:07;21.80;99.90
5560;DHT22;2803;47.916;8.074;2023-07-13T01:43:33;21.40;99.90
5560;DHT22;2803;47.916;8.074;2023-07-13T01:46:00;21.50;99.90
5560;DHT22;2803;47.916;8.074;2023-07-13T01:48:27;21.60;99.90
5560;DHT22;2803;47.916;8.074;2023-07-13T01:50:53;21.60;99.90
5560;DHT22;2803;47.916;8.074;2023-07-13T01:53:20;21.60;99.90
5560;DHT22;2803;47.916;8.074;2023-07-13T01:55:48;21.50;99.90
5560;DHT22;2803;47.916;8.074;2023-07-13T01:58:15;21.30;99.90
5560;DHT22;2803;47.916;8.074;2023-07-13T02:00:43;21.40;99.90
5560;DHT22;2803;47.916;8.074;2023-07-13T02:03:09;21.30;99.90
5560;DHT22;2803;47.916;8.074;2023-07-13T02:05:36;21.30;99.90
5560;DHT22;2803;47.916;8.074;2023-07-13T02:08:03;21.20;99.90
5560;DHT22;2803;47.916;8.074;2023-07-13T02:10:29;21.20;99.90
5560;DHT22;2803;47.916;8.074;2023-07-13T02:12:57;21.20;99.90
5560;DHT22;2803;47.916;8.074;2023-07-13T02:15:24;21.20;99.90
5560;DHT22;2803;47.916;8.074;2023-07-13T02:17:51;21.10;99.90
5560;DHT22;2803;47.916;8.074;2023-07-13T02:20:18;21.10;99.90
5560;DHT22;2803;47.916;8.074;2023-07-13T02:22:44;21.00;99.90
5560;DHT22;2803;47.916;8.074;2023-07-13T02:25:11;21.00;99.90
5560;DHT22;2803;47.916;8.074;2023-07-13T02:27:38;20.90;99.90
5560;DHT22;2803;47.916;8.074;2023-07-13T02:30:07;20.90;99.90
5560;DHT22;2803;47.916;8.074;2023-07-13T02:32:33;20.90;99.90
5560;DHT22;2803;47.916;8.074;2023-07-13T02:35:01;20.90;99.90
5560;DHT22;2803;47.916;8.074;2023-07-13T02:37:27;20.80;99.90
5560;DHT22;2803;47.916;8.074;2023-07-13T02:39:55;20.80;99.90
5560;DHT22;2803;47.916;8.074;2023-07-13T02:42:22;20.60;99.90
5560;DHT22;2803;47.916;8.074;2023-07-13T02:44:48;20.30;99.90
5560;DHT22;2803;47.916;8.074;2023-07-13T02:47:17;20.40;99.90
5560;DHT22;2803;47.916;8.074;2023-07-13T02:49:44;20.40;99.90
5560;DHT22;2803;47.916;8.074;2023-07-13T02:52:11;20.40;99.90
5560;DHT22;2803;47.916;8.074;2023-07-13T02:54:37;20.40;99.90
5560;DHT22;2803;47.916;8.074;2023-07-13T02:57:04;20.40;99.90
5560;DHT22;2803;47.916;8.074;2023-07-13T02:59:31;20.20;99.90
5560;DHT22;2803;47.916;8.074;2023-07-13T03:01:57;20.10;99.90
5560;DHT22;2803;47.916;8.074;2023-07-13T03:04:25;20.00;99.90
5560;DHT22;2803;47.916;8.074;2023-07-13T03:06:52;20.00;99.90
5560;DHT22;2803;47.916;8.074;2023-07-13T03:09:23;20.10;99.90
5560;DHT22;2803;47.916;8.074;2023-07-13T03:11:51;19.60;99.90
5560;DHT22;2803;47.916;8.074;2023-07-13T03:14:18;19.40;99.90
5560;DHT22;2803;47.916;8.074;2023-07-13T03:16:45;19.60;99.90
5560;DHT22;2803;47.916;8.074;2023-07-13T03:19:11;19.80;99.90
5560;DHT22;2803;47.916;8.074;2023-07-13T03:21:39;19.80;99.90
5560;DHT22;2803;47.916;8.074;2023-07-13T03:24:06;19.40;99.90
5560;DHT22;2803;47.916;8.074;2023-07-13T03:26:33;19.40;99.90
5560;DHT22;2803;47.916;8.074;2023-07-13T03:29:00;19.50;99.90
5560;DHT22;2803;47.916;8.074;2023-07-13T03:31:28;19.60;99.90
5560;DHT22;2803;47.916;8.074;2023-07-13T03:33:56;19.60;99.90
5560;DHT22;2803;47.916;8.074;2023-07-13T03:36:25;19.60;99.90
5560;DHT22;2803;47.916;8.074;2023-07-13T03:38:55;19.70;99.90
5560;DHT22;2803;47.916;8.074;2023-07-13T03:41:23;19.60;99.90
5560;DHT22;2803;47.916;8.074;2023-07-13T03:43:50;19.50;99.90
5560;DHT22;2803;47.916;8.074;2023-07-13T03:46:18;19.60;99.90
5560;DHT22;2803;47.916;8.074;2023-07-13T03:48:46;19.70;99.90
5560;DHT22;2803;47.916;8.074;2023-07-13T03:51:15;19.70;99.90
5560;DHT22;2803;47.916;8.074;2023-07-13T03:53:44;19.70;99.90
5560;DHT22;2803;47.916;8.074;2023-07-13T03:56:13;19.90;99.90
5560;DHT22;2803;47.916;8.074;2023-07-13T03:58:41;19.90;99.90
5560;DHT22;2803;47.916;8.074;2023-07-13T04:01:10;20.00;99.90
5560;DHT22;2803;47.916;8.074;2023-07-13T04:03:37;20.00;99.90
5560;DHT22;2803;47.916;8.074;2023-07-13T04:06:06;20.10;99.90
5560;DHT22;2803;47.916;8.074;2023-07-13T04:08:34;20.10;99.90
5560;DHT22;2803;47.916;8.074;2023-07-13T04:11:03;20.10;99.90
5560;DHT22;2803;47.916;8.074;2023-07-13T04:13:31;20.00;99.90
5560;DHT22;2803;47.916;8.074;2023-07-13T04:15:58;20.00;99.90
5560;DHT22;2803;47.916;8.074;2023-07-13T04:18:25;20.10;99.90
5560;DHT22;2803;47.916;8.074;2023-07-13T04:20:51;20.10;99.90
5560;DHT22;2803;47.916;8.074;2023-07-13T04:23:18;20.10;99.90
5560;DHT22;2803;47.916;8.074;2023-07-13T04:25:45;20.10;99.90
5560;DHT22;2803;47.916;8.074;2023-07-13T04:28:15;20.20;99.90
5560;DHT22;2803;47.916;8.074;2023-07-13T04:30:44;20.10;99.90
5560;DHT22;2803;47.916;8.074;2023-07-13T04:33:11;19.70;99.90
5560;DHT22;2803;47.916;8.074;2023-07-13T04:35:38;19.90;99.90
5560;DHT22;2803;47.916;8.074;2023-07-13T04:38:06;19.90;99.90
5560;DHT22;2803;47.916;8.074;2023-07-13T04:40:32;20.00;99.90
5560;DHT22;2803;47.916;8.074;2023-07-13T04:42:59;20.10;99.90
5560;DHT22;2803;47.916;8.074;2023-07-13T04:45:26;19.90;99.90
5560;DHT22;2803;47.916;8.074;2023-07-13T04:47:54;20.10;99.90
5560;DHT22;2803;47.916;8.074;2023-07-13T04:50:21;20.10;99.90
5560;DHT22;2803;47.916;8.074;2023-07-13T04:52:49;20.20;99.90
5560;DHT22;2803;47.916;8.074;2023-07-13T04:55:16;20.00;99.90
5560;DHT22;2803;47.916;8.074;2023-07-13T04:57:43;19.90;99.90
5560;DHT22;2803;47.916;8.074;2023-07-13T05:00:10;20.10;99.90
5560;DHT22;2803;47.916;8.074;2023-07-13T05:02:38;20.20;99.90
5560;DHT22;2803;47.916;8.074;2023-07-13T05:05:07;20.30;99.90
5560;DHT22;2803;47.916;8.074;2023-07-13T05:07:33;20.40;99.90
5560;DHT22;2803;47.916;8.074;2023-07-13T05:10:00;20.50;99.90
5560;DHT22;2803;47.916;8.074;2023-07-13T05:12:27;20.50;99.90
5560;DHT22;2803;47.916;8.074;2023-07-13T05:14:54;20.50;99.90
5560;DHT22;2803;47.916;8.074;2023-07-13T05:17:20;20.60;99.90
5560;DHT22;2803;47.916;8.074;2023-07-13T05:19:47;20.70;99.90
5560;DHT22;2803;47.916;8.074;2023-07-13T05:22:15;20.70;99.90
5560;DHT22;2803;47.916;8.074;2023-07-13T05:24:42;20.70;99.90
5560;DHT22;2803;47.916;8.074;2023-07-13T05:27:08;20.70;99.90
5560;DHT22;2803;47.916;8.074;2023-07-13T05:29:35;20.60;99.90
5560;DHT22;2803;47.916;8.074;2023-07-13T05:32:02;20.80;99.90
5560;DHT22;2803;47.916;8.074;2023-07-13T05:34:28;20.90;99.90
5560;DHT22;2803;47.916;8.074;2023-07-13T05:36:55;20.90;99.90
5560;DHT22;2803;47.916;8.074;2023-07-13T05:39:23;21.00;99.90
5560;DHT22;2803;47.916;8.074;2023-07-13T05:41:51;21.00;99.90
5560;DHT22;2803;47.916;8.074;2023-07-13T05:44:18;21.10;99.90
5560;DHT22;2803;47.916;8.074;2023-07-13T05:46:45;20.60;99.90
5560;DHT22;2803;47.916;8.074;2023-07-13T05:49:12;20.40;99.90
5560;DHT22;2803;47.916;8.074;2023-07-13T05:51:38;20.50;99.90
5560;DHT22;2803;47.916;8.074;2023-07-13T05:54:05;20.50;99.90
5560;DHT22;2803;47.916;8.074;2023-07-13T05:56:33;20.70;99.90
5560;DHT22;2803;47.916;8.074;2023-07-13T05:58:59;20.90;99.90
5560;DHT22;2803;47.916;8.074;2023-07-13T06:01:26;21.10;99.90
5560;DHT22;2803;47.916;8.074;2023-07-13T06:03:53;21.30;99.90
5560;DHT22;2803;47.916;8.074;2023-07-13T06:06:19;21.40;99.90
5560;DHT22;2803;47.916;8.074;2023-07-13T06:08:46;21.50;99.90
5560;DHT22;2803;47.916;8.074;2023-07-13T06:11:17;21.60;99.90
5560;DHT22;2803;47.916;8.074;2023-07-13T06:13:45;21.60;99.90
5560;DHT22;2803;47.916;8.074;2023-07-13T06:16:13;21.60;99.90
5560;DHT22;2803;47.916;8.074;2023-07-13T06:18:40;21.60;99.90
5560;DHT22;2803;47.916;8.074;2023-07-13T06:21:08;21.80;99.90
5560;DHT22;2803;47.916;8.074;2023-07-13T06:23:35;21.80;99.90
5560;DHT22;2803;47.916;8.074;2023-07-13T06:26:02;22.00;99.90
5560;DHT22;2803;47.916;8.074;2023-07-13T06:28:29;22.10;99.90
5560;DHT22;2803;47.916;8.074;2023-07-13T06:30:58;22.20;99.90
5560;DHT22;2803;47.916;8.074;2023-07-13T06:33:25;22.30;99.90
5560;DHT22;2803;47.916;8.074;2023-07-13T06:35:52;22.40;99.90
5560;DHT22;2803;47.916;8.074;2023-07-13T06:38:20;22.40;99.90
5560;DHT22;2803;47.916;8.074;2023-07-13T06:40:47;22.50;99.90
5560;DHT22;2803;47.916;8.074;2023-07-13T06:43:13;22.70;99.90
5560;DHT22;2803;47.916;8.074;2023-07-13T06:45:41;22.60;99.90
5560;DHT22;2803;47.916;8.074;2023-07-13T06:48:09;22.80;99.90
5560;DHT22;2803;47.916;8.074;2023-07-13T06:50:36;22.80;99.90
5560;DHT22;2803;47.916;8.074;2023-07-13T06:53:03;22.70;99.90
5560;DHT22;2803;47.916;8.074;2023-07-13T06:55:29;22.50;99.90
5560;DHT22;2803;47.916;8.074;2023-07-13T06:57:57;22.70;99.90
5560;DHT22;2803;47.916;8.074;2023-07-13T07:00:23;22.60;99.90
5560;DHT22;2803;47.916;8.074;2023-07-13T07:02:50;22.00;99.90
5560;DHT22;2803;47.916;8.074;2023-07-13T07:05:18;21.30;99.90
5560;DHT22;2803;47.916;8.074;2023-07-13T07:07:47;21.20;99.90
5560;DHT22;2803;47.916;8.074;2023-07-13T07:10:14;21.30;99.90
5560;DHT22;2803;47.916;8.074;2023-07-13T07:12:41;21.10;99.90
5560;DHT22;2803;47.916;8.074;2023-07-13T07:15:08;21.20;99.90
5560;DHT22;2803;47.916;8.074;2023-07-13T07:17:34;21.60;99.90
5560;DHT22;2803;47.916;8.074;2023-07-13T07:20:01;21.90;99.90
5560;DHT22;2803;47.916;8.074;2023-07-13T07:22:30;21.60;99.90
5560;DHT22;2803;47.916;8.074;2023-07-13T07:24:57;21.40;99.90
5560;DHT22;2803;47.916;8.074;2023-07-13T07:27:24;21.50;99.90
5560;DHT22;2803;47.916;8.074;2023-07-13T07:29:51;21.50;99.90
5560;DHT22;2803;47.916;8.074;2023-07-13T07:32:18;21.50;99.90
5560;DHT22;2803;47.916;8.074;2023-07-13T07:34:45;21.50;99.90
5560;DHT22;2803;47.916;8.074;2023-07-13T07:37:13;22.00;99.90
5560;DHT22;2803;47.916;8.074;2023-07-13T07:39:42;22.30;99.90
5560;DHT22;2803;47.916;8.074;2023-07-13T07:42:09;22.60;99.90
5560;DHT22;2803;47.916;8.074;2023-07-13T07:44:35;22.60;99.90
5560;DHT22;2803;47.916;8.074;2023-07-13T07:47:02;22.60;99.90
5560;DHT22;2803;47.916;8.074;2023-07-13T07:49:29;22.90;99.90
5560;DHT22;2803;47.916;8.074;2023-07-13T07:51:55;22.70;99.90
5560;DHT22;2803;47.916;8.074;2023-07-13T07:54:22;22.20;99.90
5560;DHT22;2803;47.916;8.074;2023-07-13T07:56:50;22.30;99.90
5560;DHT22;2803;47.916;8.074;2023-07-13T07:59:16;22.30;99.90
5560;DHT22;2803;47.916;8.074;2023-07-13T08:01:43;22.40;99.90
5560;DHT22;2803;47.916;8.074;2023-07-13T08:04:11;22.50;99.90
5560;DHT22;2803;47.916;8.074;2023-07-13T08:06:38;22.40;99.90
5560;DHT22;2803;47.916;8.074;2023-07-13T08:09:04;22.10;99.90
5560;DHT22;2803;47.916;8.074;2023-07-13T08:11:31;22.40;99.90
5560;DHT22;2803;47.916;8.074;2023-07-13T08:13:59;22.50;99.90
5560;DHT22;2803;47.916;8.074;2023-07-13T08:16:26;23.00;99.90
5560;DHT22;2803;47.916;8.074;2023-07-13T08:18:52;23.10;99.90
5560;DHT22;2803;47.916;8.074;2023-07-13T08:21:19;22.50;99.90
5560;DHT22;2803;47.916;8.074;2023-07-13T08:23:47;22.40;99.90
5560;DHT22;2803;47.916;8.074;2023-07-13T08:26:13;22.60;99.90
5560;DHT22;2803;47.916;8.074;2023-07-13T08:28:41;22.30;99.90
5560;DHT22;2803;47.916;8.074;2023-07-13T08:31:09;22.40;99.90
5560;DHT22;2803;47.916;8.074;2023-07-13T08:33:36;22.40;99.90
5560;DHT22;2803;47.916;8.074;2023-07-13T08:36:04;22.20;99.90
5560;DHT22;2803;47.916;8.074;2023-07-13T08:38:30;22.10;99.90
5560;DHT22;2803;47.916;8.074;2023-07-13T08:40:57;22.30;99.90
5560;DHT22;2803;47.916;8.074;2023-07-13T08:43:26;22.50;99.90
5560;DHT22;2803;47.916;8.074;2023-07-13T08:45:58;22.60;99.90
5560;DHT22;2803;47.916;8.074;2023-07-13T08:48:31;22.30;99.90
5560;DHT22;2803;47.916;8.074;2023-07-13T08:51:04;22.30;99.90
5560;DHT22;2803;47.916;8.074;2023-07-13T08:53:36;23.00;99.90
5560;DHT22;2803;47.916;8.074;2023-07-13T08:56:07;22.80;99.90
5560;DHT22;2803;47.916;8.074;2023-07-13T08:58:38;22.50;99.90
5560;DHT22;2803;47.916;8.074;2023-07-13T09:01:12;22.40;99.90
5560;DHT22;2803;47.916;8.074;2023-07-13T09:03:50;23.00;99.90
5560;DHT22;2803;47.916;8.074;2023-07-13T09:06:20;23.10;99.90
5560;DHT22;2803;47.916;8.074;2023-07-13T09:08:57;23.30;99.90
5560;DHT22;2803;47.916;8.074;2023-07-13T09:11:36;23.40;99.90
5560;DHT22;2803;47.916;8.074;2023-07-13T09:14:33;23.00;99.90
5560;DHT22;2803;47.916;8.074;2023-07-13T09:17:03;22.90;99.90
5560;DHT22;2803;47.916;8.074;2023-07-13T09:19:33;22.40;99.90
5560;DHT22;2803;47.916;8.074;2023-07-13T09:22:02;22.60;99.90
5560;DHT22;2803;47.916;8.074;2023-07-13T09:24:36;22.90;99.90
5560;DHT22;2803;47.916;8.074;2023-07-13T09:27:11;23.20;99.90
5560;DHT22;2803;47.916;8.074;2023-07-13T09:29:44;23.30;99.90
5560;DHT22;2803;47.916;8.074;2023-07-13T09:32:13;23.60;99.90
5560;DHT22;2803;47.916;8.074;2023-07-13T09:34:42;23.70;99.90
5560;DHT22;2803;47.916;8.074;2023-07-13T09:37:09;23.60;99.90
5560;DHT22;2803;47.916;8.074;2023-07-13T09:39:39;23.70;99.90
5560;DHT22;2803;47.916;8.074;2023-07-13T09:42:12;23.80;99.90
5560;DHT22;2803;47.916;8.074;2023-07-13T09:44:52;23.40;99.90
5560;DHT22;2803;47.916;8.074;2023-07-13T09:47:21;23.20;99.90
5560;DHT22;2803;47.916;8.074;2023-07-13T09:49:56;22.80;99.90
5560;DHT22;2803;47.916;8.074;2023-07-13T09:52:24;23.10;99.90
5560;DHT22;2803;47.916;8.074;2023-07-13T09:54:52;23.10;99.90
5560;DHT22;2803;47.916;8.074;2023-07-13T09:57:25;23.60;99.90
5560;DHT22;2803;47.916;8.074;2023-07-13T09:59:54;23.70;99.90
5560;DHT22;2803;47.916;8.074;2023-07-13T10:02:24;23.80;99.90
5560;DHT22;2803;47.916;8.074;2023-07-13T10:04:58;23.50;99.90
5560;DHT22;2803;47.916;8.074;2023-07-13T10:07:25;24.00;99.90
5560;DHT22;2803;47.916;8.074;2023-07-13T10:09:52;24.40;99.90
5560;DHT22;2803;47.916;8.074;2023-07-13T10:12:21;24.50;99.90
5560;DHT22;2803;47.916;8.074;2023-07-13T10:14:51;24.60;99.90
5560;DHT22;2803;47.916;8.074;2023-07-13T10:17:25;24.40;99.90
5560;DHT22;2803;47.916;8.074;2023-07-13T10:19:59;23.90;99.90
5560;DHT22;2803;47.916;8.074;2023-07-13T10:22:37;23.90;99.90
5560;DHT22;2803;47.916;8.074;2023-07-13T10:25:23;24.30;99.90
5560;DHT22;2803;47.916;8.074;2023-07-13T10:27:52;24.00;99.90
5560;DHT22;2803;47.916;8.074;2023-07-13T10:30:22;24.20;99.90
5560;DHT22;2803;47.916;8.074;2023-07-13T10:32:51;24.50;99.90
5560;DHT22;2803;47.916;8.074;2023-07-13T10:35:22;25.10;99.90
5560;DHT22;2803;47.916;8.074;2023-07-13T10:37:51;25.50;99.90
5560;DHT22;2803;47.916;8.074;2023-07-13T10:40:21;25.90;99.90
5560;DHT22;2803;47.916;8.074;2023-07-13T10:42:50;25.70;99.90
5560;DHT22;2803;47.916;8.074;2023-07-13T10:45:20;25.40;99.60
5560;DHT22;2803;47.916;8.074;2023-07-13T10:47:47;25.20;99.80
5560;DHT22;2803;47.916;8.074;2023-07-13T10:50:18;24.90;99.90
5560;DHT22;2803;47.916;8.074;2023-07-13T10:52:49;24.50;99.90
5560;DHT22;2803;47.916;8.074;2023-07-13T10:55:32;24.80;99.90
5560;DHT22;2803;47.916;8.074;2023-07-13T10:58:10;25.50;99.70
5560;DHT22;2803;47.916;8.074;2023-07-13T11:00:48;25.90;99.20
5560;DHT22;2803;47.916;8.074;2023-07-13T11:03:18;25.90;98.40
5560;DHT22;2803;47.916;8.074;2023-07-13T11:05:49;25.90;97.90
5560;DHT22;2803;47.916;8.074;2023-07-13T11:08:31;25.90;97.00
5560;DHT22;2803;47.916;8.074;2023-07-13T11:10:59;26.10;97.10
5560;DHT22;2803;47.916;8.074;2023-07-13T11:16:36;26.40;95.70
5560;DHT22;2803;47.916;8.074;2023-07-13T11:19:24;26.60;95.40
5560;DHT22;2803;47.916;8.074;2023-07-13T11:22:02;26.40;94.90
5560;DHT22;2803;47.916;8.074;2023-07-13T11:24:49;26.50;95.50
5560;DHT22;2803;47.916;8.074;2023-07-13T11:27:24;26.60;95.30
5560;DHT22;2803;47.916;8.074;2023-07-13T11:30:07;27.20;95.30
5560;DHT22;2803;47.916;8.074;2023-07-13T11:32:35;27.70;93.90
5560;DHT22;2803;47.916;8.074;2023-07-13T11:35:02;28.00;93.00
5560;DHT22;2803;47.916;8.074;2023-07-13T11:37:30;28.40;92.60
5560;DHT22;2803;47.916;8.074;2023-07-13T11:39:58;28.40;91.00
5560;DHT22;2803;47.916;8.074;2023-07-13T11:42:25;28.50;91.00
5560;DHT22;2803;47.916;8.074;2023-07-13T11:44:52;28.70;91.20
5560;DHT22;2803;47.916;8.074;2023-07-13T11:47:22;28.40;90.70
5560;DHT22;2803;47.916;8.074;2023-07-13T11:49:53;28.30;90.40
5560;DHT22;2803;47.916;8.074;2023-07-13T11:52:24;28.10;90.30
5560;DHT22;2803;47.916;8.074;2023-07-13T11:54:54;28.50;91.40
5560;DHT22;2803;47.916;8.074;2023-07-13T11:57:25;28.60;90.30
5560;DHT22;2803;47.916;8.074;2023-07-13T11:59:54;29.30;90.40
5560;DHT22;2803;47.916;8.074;2023-07-13T12:02:28;29.30;86.60
5560;DHT22;2803;47.916;8.074;2023-07-13T12:04:55;29.80;91.10
5560;DHT22;2803;47.916;8.074;2023-07-13T12:07:22;30.40;87.80
5560;DHT22;2803;47.916;8.074;2023-07-13T12:09:49;30.60;86.20
5560;DHT22;2803;47.916;8.074;2023-07-13T12:12:21;29.70;87.30
5560;DHT22;2803;47.916;8.074;2023-07-13T12:14:52;29.90;84.50
5560;DHT22;2803;47.916;8.074;2023-07-13T12:17:22;30.10;82.90
5560;DHT22;2803;47.916;8.074;2023-07-13T12:19:50;29.30;78.50
5560;DHT22;2803;47.916;8.074;2023-07-13T12:22:20;29.30;79.50
5560;DHT22;2803;47.916;8.074;2023-07-13T12:24:48;29.90;81.80
5560;DHT22;2803;47.916;8.074;2023-07-13T12:27:20;29.40;79.70
5560;DHT22;2803;47.916;8.074;2023-07-13T12:29:52;29.60;85.10
5560;DHT22;2803;47.916;8.074;2023-07-13T12:32:20;29.90;77.30
5560;DHT22;2803;47.916;8.074;2023-07-13T12:34:52;29.80;82.50
5560;DHT22;2803;47.916;8.074;2023-07-13T12:37:19;30.00;78.40
5560;DHT22;2803;47.916;8.074;2023-07-13T12:39:47;30.40;80.40
5560;DHT22;2803;47.916;8.074;2023-07-13T12:42:20;29.50;75.50
5560;DHT22;2803;47.916;8.074;2023-07-13T12:44:49;28.70;76.40
5560;DHT22;2803;47.916;8.074;2023-07-13T12:47:20;28.70;77.50
5560;DHT22;2803;47.916;8.074;2023-07-13T12:49:49;28.70;77.80
5560;DHT22;2803;47.916;8.074;2023-07-13T12:52:20;28.90;75.40
5560;DHT22;2803;47.916;8.074;2023-07-13T12:54:55;28.70;72.40
5560;DHT22;2803;47.916;8.074;2023-07-13T12:57:23;28.20;72.40
5560;DHT22;2803;47.916;8.074;2023-07-13T12:59:52;28.10;76.30
5560;DHT22;2803;47.916;8.074;2023-07-13T13:02:27;28.90;77.30
5560;DHT22;2803;47.916;8.074;2023-07-13T13:04:55;28.70;66.70
5560;DHT22;2803;47.916;8.074;2023-07-13T13:07:23;28.60;70.50
5560;DHT22;2803;47.916;8.074;2023-07-13T13:09:50;28.40;71.70
5560;DHT22;2803;47.916;8.074;2023-07-13T13:12:19;28.00;75.10
5560;DHT22;2803;47.916;8.074;2023-07-13T13:14:45;28.30;73.30
5560;DHT22;2803;47.916;8.074;2023-07-13T13:17:18;29.30;76.40
5560;DHT22;2803;47.916;8.074;2023-07-13T13:19:47;29.90;71.00
5560;DHT22;2803;47.916;8.074;2023-07-13T13:22:14;29.80;72.10
5560;DHT22;2803;47.916;8.074;2023-07-13T13:24:41;30.10;69.10
5560;DHT22;2803;47.916;8.074;2023-07-13T13:27:15;29.20;69.60
5560;DHT22;2803;47.916;8.074;2023-07-13T13:29:43;28.20;69.90
5560;DHT22;2803;47.916;8.074;2023-07-13T13:32:13;27.80;71.80
5560;DHT22;2803;47.916;8.074;2023-07-13T13:34:40;28.20;75.60
5560;DHT22;2803;47.916;8.074;2023-07-13T13:37:17;29.00;74.80
5560;DHT22;2803;47.916;8.074;2023-07-13T13:39:45;29.80;71.70
5560;DHT22;2803;47.916;8.074;2023-07-13T13:42:13;28.50;73.80
5560;DHT22;2803;47.916;8.074;2023-07-13T13:44:41;28.00;74.30
5560;DHT22;2803;47.916;8.074;2023-07-13T13:47:21;28.60;74.90
5560;DHT22;2803;47.916;8.074;2023-07-13T13:49:49;28.70;76.00
5560;DHT22;2803;47.916;8.074;2023-07-13T13:52:17;28.70;75.20
5560;DHT22;2803;47.916;8.074;2023-07-13T13:54:44;29.20;75.60
5560;DHT22;2803;47.916;8.074;2023-07-13T13:57:11;29.80;77.60
5560;DHT22;2803;47.916;8.074;2023-07-13T13:59:38;30.20;73.00
5560;DHT22;2803;47.916;8.074;2023-07-13T14:02:19;29.70;74.30
5560;DHT22;2803;47.916;8.074;2023-07-13T14:04:49;29.80;71.50
5560;DHT22;2803;47.916;8.074;2023-07-13T14:07:17;30.10;71.60
5560;DHT22;2803;47.916;8.074;2023-07-13T14:09:44;30.10;73.30
5560;DHT22;2803;47.916;8.074;2023-07-13T14:12:10;29.00;71.00
5560;DHT22;2803;47.916;8.074;2023-07-13T14:14:38;29.00;75.60
5560;DHT22;2803;47.916;8.074;2023-07-13T14:17:14;28.70;73.90
5560;DHT22;2803;47.916;8.074;2023-07-13T14:19:47;28.20;73.10
5560;DHT22;2803;47.916;8.074;2023-07-13T14:22:17;28.30;74.30
5560;DHT22;2803;47.916;8.074;2023-07-13T14:24:44;28.20;74.70
5560;DHT22;2803;47.916;8.074;2023-07-13T14:27:11;27.80;76.70
5560;DHT22;2803;47.916;8.074;2023-07-13T14:29:38;27.80;77.50
5560;DHT22;2803;47.916;8.074;2023-07-13T14:32:10;27.70;79.70
5560;DHT22;2803;47.916;8.074;2023-07-13T14:34:36;27.80;78.20
5560;DHT22;2803;47.916;8.074;2023-07-13T14:37:04;27.80;77.50
5560;DHT22;2803;47.916;8.074;2023-07-13T14:39:32;27.60;79.70
5560;DHT22;2803;47.916;8.074;2023-07-13T14:41:59;27.70;83.90
5560;DHT22;2803;47.916;8.074;2023-07-13T14:44:28;27.60;81.60
5560;DHT22;2803;47.916;8.074;2023-07-13T14:46:56;27.50;80.80
5560;DHT22;2803;47.916;8.074;2023-07-13T14:49:25;26.90;78.40
5560;DHT22;2803;47.916;8.074;2023-07-13T14:51:52;27.10;79.70
5560;DHT22;2803;47.916;8.074;2023-07-13T14:54:19;26.70;78.80
5560;DHT22;2803;47.916;8.074;2023-07-13T14:56:47;26.30;82.00
5560;DHT22;2803;47.916;8.074;2023-07-13T14:59:14;25.80;83.60
5560;DHT22;2803;47.916;8.074;2023-07-13T15:01:41;25.70;85.70
5560;DHT22;2803;47.916;8.074;2023-07-13T15:04:08;25.70;87.20
5560;DHT22;2803;47.916;8.074;2023-07-13T15:06:52;26.10;87.70
5560;DHT22;2803;47.916;8.074;2023-07-13T15:09:19;26.10;86.80
5560;DHT22;2803;47.916;8.074;2023-07-13T15:11:47;25.60;87.90
5560;DHT22;2803;47.916;8.074;2023-07-13T15:14:14;25.80;90.40
5560;DHT22;2803;47.916;8.074;2023-07-13T15:16:40;26.20;88.00
5560;DHT22;2803;47.916;8.074;2023-07-13T15:19:09;26.60;88.10
5560;DHT22;2803;47.916;8.074;2023-07-13T15:21:36;27.10;89.50
5560;DHT22;2803;47.916;8.074;2023-07-13T15:24:04;26.80;87.90
5560;DHT22;2803;47.916;8.074;2023-07-13T15:26:33;26.90;87.50
5560;DHT22;2803;47.916;8.074;2023-07-13T15:29:02;27.00;88.70
5560;DHT22;2803;47.916;8.074;2023-07-13T15:31:29;27.20;88.80
5560;DHT22;2803;47.916;8.074;2023-07-13T15:33:58;27.50;85.30
5560;DHT22;2803;47.916;8.074;2023-07-13T15:36:26;27.40;85.40
5560;DHT22;2803;47.916;8.074;2023-07-13T15:38:54;27.00;86.90
5560;DHT22;2803;47.916;8.074;2023-07-13T15:41:23;26.50;89.10
5560;DHT22;2803;47.916;8.074;2023-07-13T15:43:50;26.00;89.80
5560;DHT22;2803;47.916;8.074;2023-07-13T15:46:20;25.70;89.40
5560;DHT22;2803;47.916;8.074;2023-07-13T15:48:47;25.40;90.00
5560;DHT22;2803;47.916;8.074;2023-07-13T15:51:19;25.30;90.60
5560;DHT22;2803;47.916;8.074;2023-07-13T15:53:47;25.30;90.70
5560;DHT22;2803;47.916;8.074;2023-07-13T15:56:18;25.20;90.80
5560;DHT22;2803;47.916;8.074;2023-07-13T15:58:45;25.20;91.20
5560;DHT22;2803;47.916;8.074;2023-07-13T16:01:13;25.20;91.10
5560;DHT22;2803;47.916;8.074;2023-07-13T16:03:41;25.50;91.20
5560;DHT22;2803;47.916;8.074;2023-07-13T16:06:14;25.50;91.10
5560;DHT22;2803;47.916;8.074;2023-07-13T16:08:42;25.50;91.60
5560;DHT22;2803;47.916;8.074;2023-07-13T16:11:15;25.70;90.90
5560;DHT22;2803;47.916;8.074;2023-07-13T16:13:43;25.60;91.50
5560;DHT22;2803;47.916;8.074;2023-07-13T16:16:11;25.80;92.30